createdAt,value
2019-03-27T00:00:27.510Z,69.50
2019-03-27T00:02:47.683Z,69.70
2019-03-27T00:05:08.345Z,69.90
2019-03-27T00:07:29.004Z,69.10
2019-03-27T00:09:49.503Z,69.80
2019-03-27T00:12:09.999Z,69.80
2019-03-27T00:14:30.533Z,69.70
2019-03-27T00:16:51.123Z,70.10
2019-03-27T00:19:11.778Z,70.70
2019-03-27T00:21:32.355Z,70.90
2019-03-27T00:23:53.027Z,71.40
2019-03-27T00:26:13.481Z,70.90
2019-03-27T00:28:34.076Z,71.00
2019-03-27T00:30:55.800Z,71.10
2019-03-27T00:33:16.549Z,71.10
2019-03-27T00:35:37.129Z,70.40
2019-03-27T00:37:58.724Z,70.90
2019-03-27T00:40:20.499Z,71.00
2019-03-27T00:42:41.057Z,70.50
2019-03-27T00:45:01.905Z,70.70
2019-03-27T00:47:22.444Z,70.40
2019-03-27T00:49:42.896Z,70.20
2019-03-27T00:52:03.503Z,69.80
2019-03-27T00:54:24.261Z,70.30
2019-03-27T00:56:44.807Z,71.20
2019-03-27T00:59:05.330Z,71.10
2019-03-27T01:01:26.818Z,71.20
2019-03-27T01:03:47.370Z,70.50
2019-03-27T01:06:08.144Z,70.30
2019-03-27T01:08:28.847Z,69.90
2019-03-27T01:10:52.585Z,70.00
2019-03-27T01:13:13.196Z,70.70
2019-03-27T01:15:40.346Z,70.30
2019-03-27T01:18:01.311Z,70.80
2019-03-27T01:20:21.870Z,71.20
2019-03-27T01:22:42.685Z,71.40
2019-03-27T01:25:03.403Z,71.80
2019-03-27T01:27:24.050Z,71.10
2019-03-27T01:29:44.710Z,71.00
2019-03-27T01:32:06.780Z,70.70
2019-03-27T01:34:27.353Z,70.40
2019-03-27T01:36:47.883Z,70.50
2019-03-27T01:39:08.545Z,70.90
2019-03-27T01:41:29.318Z,71.40
2019-03-27T01:43:49.839Z,71.50
2019-03-27T01:46:11.479Z,71.90
2019-03-27T01:48:33.153Z,72.40
2019-03-27T01:50:53.657Z,73.00
2019-03-27T01:53:14.144Z,72.80
2019-03-27T01:55:34.807Z,72.70
2019-03-27T01:57:55.293Z,72.80
2019-03-27T02:00:16.053Z,72.80
2019-03-27T02:02:36.695Z,73.20
2019-03-27T02:04:57.210Z,73.50
2019-03-27T02:07:17.650Z,74.10
2019-03-27T02:09:38.368Z,74.00
2019-03-27T02:11:59.092Z,73.90
2019-03-27T02:14:19.869Z,73.90
2019-03-27T02:16:40.400Z,74.30
2019-03-27T02:19:01.038Z,74.50
2019-03-27T02:21:24.306Z,74.20
2019-03-27T02:23:49.922Z,74.20
2019-03-27T02:26:11.761Z,74.80
2019-03-27T02:28:32.390Z,75.30
2019-03-27T02:30:53.019Z,75.20
2019-03-27T02:33:13.614Z,75.00
2019-03-27T02:35:34.108Z,74.70
2019-03-27T02:37:54.631Z,74.60
2019-03-27T02:40:15.265Z,75.30
2019-03-27T02:42:35.987Z,75.40
2019-03-27T02:44:56.556Z,75.00
2019-03-27T02:47:17.154Z,74.80
2019-03-27T02:49:37.848Z,75.00
2019-03-27T02:51:58.390Z,75.30
2019-03-27T02:54:18.935Z,75.50
2019-03-27T02:56:39.467Z,75.40
2019-03-27T02:59:00.096Z,75.60
2019-03-27T03:01:20.726Z,75.20
2019-03-27T03:03:41.287Z,75.40
2019-03-27T03:06:01.865Z,75.40
2019-03-27T03:08:23.682Z,75.60
2019-03-27T03:10:45.929Z,76.00
2019-03-27T03:13:05.812Z,76.10
2019-03-27T03:15:29.558Z,76.40
2019-03-27T03:17:50.511Z,76.00
2019-03-27T03:20:12.311Z,75.20
2019-03-27T03:22:32.818Z,74.20
2019-03-27T03:24:53.399Z,74.40
2019-03-27T03:27:14.017Z,74.20
2019-03-27T03:29:34.623Z,75.30
2019-03-27T03:31:56.121Z,75.50
2019-03-27T03:34:16.669Z,75.50
2019-03-27T03:36:37.153Z,75.60
2019-03-27T03:38:57.692Z,76.30
2019-03-27T03:41:18.388Z,76.00
2019-03-27T03:43:38.925Z,75.70
2019-03-27T03:45:59.484Z,75.20
2019-03-27T03:48:20.164Z,74.10
2019-03-27T03:50:42.568Z,74.20
2019-03-27T03:53:02.921Z,73.40
2019-03-27T03:55:26.075Z,74.40
2019-03-27T03:57:46.280Z,74.10
2019-03-27T04:00:08.151Z,74.00
2019-03-27T04:02:31.882Z,74.00
2019-03-27T04:04:54.708Z,73.00
2019-03-27T04:07:14.957Z,72.50
2019-03-27T04:09:36.663Z,72.40
2019-03-27T04:11:57.195Z,72.80
2019-03-27T04:14:17.731Z,73.50
2019-03-27T04:16:38.235Z,73.50
2019-03-27T04:18:58.790Z,73.00
2019-03-27T04:21:19.315Z,73.40
2019-03-27T04:23:39.924Z,73.50
2019-03-27T04:26:09.565Z,73.20
2019-03-27T04:28:22.384Z,73.40
2019-03-27T04:30:44.109Z,74.70
2019-03-27T04:33:04.780Z,73.90
2019-03-27T04:35:25.291Z,73.40
2019-03-27T04:37:52.127Z,73.60
2019-03-27T04:40:15.643Z,74.40
2019-03-27T04:42:36.318Z,74.00
2019-03-27T04:44:56.846Z,73.80
2019-03-27T04:47:31.585Z,73.80
2019-03-27T04:49:39.349Z,74.40
2019-03-27T04:51:59.961Z,74.50
2019-03-27T04:54:20.467Z,75.20
2019-03-27T04:56:41.086Z,73.90
2019-03-27T04:59:01.896Z,75.10
2019-03-27T05:01:22.464Z,74.50
2019-03-27T05:03:43.254Z,73.80
2019-03-27T05:06:03.950Z,72.60
2019-03-27T05:08:24.841Z,72.50
2019-03-27T05:10:45.470Z,72.20
2019-03-27T05:13:05.919Z,72.90
2019-03-27T05:15:26.475Z,72.60
2019-03-27T05:17:47.023Z,72.30
2019-03-27T05:20:08.348Z,72.00
2019-03-27T05:22:29.062Z,71.80
2019-03-27T05:24:49.604Z,71.80
2019-03-27T05:27:10.108Z,71.60
2019-03-27T05:29:30.590Z,72.00
2019-03-27T05:31:51.133Z,71.90
2019-03-27T05:34:11.711Z,72.30
2019-03-27T05:36:32.218Z,72.20
2019-03-27T05:38:52.770Z,72.30
2019-03-27T05:41:13.318Z,72.80
2019-03-27T05:43:33.852Z,73.00
2019-03-27T05:45:54.489Z,72.80
2019-03-27T05:48:14.965Z,72.60
2019-03-27T05:50:35.515Z,72.30
2019-03-27T05:52:56.024Z,72.00
2019-03-27T05:55:16.648Z,71.90
2019-03-27T05:57:37.168Z,71.70
2019-03-27T05:59:57.957Z,71.00
2019-03-27T06:02:18.557Z,70.80
2019-03-27T06:04:39.050Z,70.70
2019-03-27T06:06:59.651Z,70.90
2019-03-27T06:09:20.204Z,70.90
2019-03-27T06:11:40.684Z,71.00
2019-03-27T06:14:01.210Z,71.00
2019-03-27T06:16:21.797Z,70.30
2019-03-27T06:18:42.332Z,70.20
2019-03-27T06:21:02.967Z,70.60
2019-03-27T06:23:23.539Z,70.30
2019-03-27T06:25:44.999Z,69.70
2019-03-27T06:28:05.755Z,69.40
2019-03-27T06:30:45.769Z,69.40
2019-03-27T06:33:06.392Z,69.00
2019-03-27T06:35:26.982Z,69.20
2019-03-27T06:37:47.524Z,68.80
2019-03-27T06:40:08.940Z,69.30
2019-03-27T06:42:29.460Z,69.50
2019-03-27T06:44:50.019Z,69.10
2019-03-27T06:47:11.475Z,69.30
2019-03-27T06:49:32.169Z,69.50
2019-03-27T06:51:52.853Z,69.10
2019-03-27T06:54:13.380Z,69.00
2019-03-27T06:56:34.086Z,69.00
2019-03-27T06:58:55.155Z,69.00
2019-03-27T07:01:15.946Z,69.20
2019-03-27T07:03:36.616Z,68.40
2019-03-27T07:05:57.189Z,67.90
2019-03-27T07:08:17.780Z,68.20
2019-03-27T07:10:38.470Z,67.30
2019-03-27T07:12:59.084Z,67.80
2019-03-27T07:15:19.835Z,67.60
2019-03-27T07:17:40.492Z,67.70
2019-03-27T07:20:01.205Z,67.20
2019-03-27T07:22:21.976Z,67.10
2019-03-27T07:24:42.701Z,66.70
2019-03-27T07:27:04.399Z,66.60
2019-03-27T07:29:24.934Z,66.10
2019-03-27T07:31:45.614Z,65.30
2019-03-27T07:34:06.173Z,65.10
2019-03-27T07:36:26.781Z,64.70
2019-03-27T07:38:47.342Z,64.40
2019-03-27T07:41:08.979Z,63.60
2019-03-27T07:43:29.473Z,63.20
2019-03-27T07:45:50.115Z,62.80
2019-03-27T07:48:10.796Z,61.90
2019-03-27T07:50:31.467Z,61.10
2019-03-27T07:52:51.989Z,60.90
2019-03-27T07:55:19.126Z,60.60
2019-03-27T07:57:34.825Z,60.20
2019-03-27T07:59:55.399Z,60.00
2019-03-27T08:02:16.022Z,59.50
2019-03-27T08:04:36.541Z,59.40
2019-03-27T08:06:57.180Z,59.40
2019-03-27T08:09:18.843Z,60.00
2019-03-27T08:11:39.572Z,58.80
2019-03-27T08:14:00.335Z,58.60
2019-03-27T08:16:20.956Z,58.30
2019-03-27T08:18:41.494Z,58.20
2019-03-27T08:21:02.001Z,58.30
2019-03-27T08:23:22.615Z,58.50
2019-03-27T08:25:43.254Z,58.00
2019-03-27T08:28:04.213Z,57.40
2019-03-27T08:30:25.103Z,57.20
2019-03-27T08:32:45.669Z,57.40
2019-03-27T08:35:07.812Z,56.20
2019-03-27T08:37:28.321Z,56.90
2019-03-27T08:39:48.991Z,55.80
2019-03-27T08:42:09.460Z,55.30
2019-03-27T08:44:30.138Z,55.70
2019-03-27T08:46:50.778Z,54.60
2019-03-27T08:49:21.701Z,53.90
2019-03-27T08:51:33.686Z,54.40
2019-03-27T08:53:54.360Z,54.30
2019-03-27T08:56:14.882Z,55.10
2019-03-27T08:58:35.394Z,55.10
2019-03-27T09:00:56.789Z,55.60
2019-03-27T09:03:18.143Z,55.00
2019-03-27T09:05:38.836Z,54.00
2019-03-27T09:07:59.333Z,53.50
2019-03-27T09:10:19.979Z,53.10
2019-03-27T09:12:40.217Z,52.70
2019-03-27T09:15:00.898Z,52.70
2019-03-27T09:17:21.251Z,52.70
2019-03-27T09:19:41.730Z,52.50
2019-03-27T09:22:02.352Z,52.00
2019-03-27T09:24:22.930Z,50.80
2019-03-27T09:26:43.553Z,49.80
2019-03-27T09:29:03.687Z,49.50
2019-03-27T09:31:23.868Z,49.30
2019-03-27T09:33:44.346Z,49.50
2019-03-27T09:36:05.219Z,48.70
2019-03-27T09:38:26.008Z,49.30
2019-03-27T09:40:46.630Z,51.40
2019-03-27T09:43:06.812Z,52.40
2019-03-27T09:45:26.717Z,53.30
2019-03-27T09:47:47.424Z,53.80
2019-03-27T09:50:07.871Z,54.40
2019-03-27T09:52:29.452Z,54.60
2019-03-27T09:54:50.165Z,54.60
2019-03-27T09:57:10.796Z,55.00
2019-03-27T09:59:31.376Z,54.70
2019-03-27T10:01:52.193Z,53.90
2019-03-27T10:04:12.654Z,54.00
2019-03-27T10:06:33.288Z,53.80
2019-03-27T10:08:53.899Z,55.80
2019-03-27T10:11:15.600Z,56.80
2019-03-27T10:13:36.422Z,56.00
2019-03-27T10:15:56.971Z,56.50
2019-03-27T10:18:17.435Z,56.20
2019-03-27T10:20:39.178Z,55.30
2019-03-27T10:22:59.815Z,54.30
2019-03-27T10:25:20.501Z,54.00
2019-03-27T10:27:42.315Z,53.60
2019-03-27T10:30:02.857Z,54.40
2019-03-27T10:32:23.493Z,54.10
2019-03-27T10:34:44.040Z,54.40
2019-03-27T10:37:05.646Z,54.90
2019-03-27T10:39:26.220Z,55.60
2019-03-27T10:41:46.898Z,56.00
2019-03-27T10:44:07.573Z,56.50
2019-03-27T10:46:28.233Z,56.30
2019-03-27T10:48:52.934Z,57.00
2019-03-27T10:51:11.165Z,57.40
2019-03-27T10:53:31.944Z,57.60
2019-03-27T10:55:53.526Z,57.60
2019-03-27T10:58:20.950Z,57.60
2019-03-27T11:00:36.610Z,58.00
2019-03-27T11:02:57.381Z,57.90
2019-03-27T11:05:17.956Z,58.20
2019-03-27T11:07:38.506Z,57.70
2019-03-27T11:09:59.082Z,57.50
2019-03-27T11:12:19.595Z,57.30
2019-03-27T11:14:40.829Z,56.40
2019-03-27T11:17:01.360Z,56.40
2019-03-27T11:19:21.993Z,56.20
2019-03-27T11:21:42.665Z,56.90
2019-03-27T11:24:03.100Z,56.30
2019-03-27T11:26:23.856Z,56.60
2019-03-27T11:28:44.319Z,56.50
2019-03-27T11:31:04.915Z,56.70
2019-03-27T11:33:28.800Z,56.90
2019-03-27T11:35:47.780Z,56.70
2019-03-27T11:38:08.543Z,56.50
2019-03-27T11:40:29.123Z,56.70
2019-03-27T11:42:49.631Z,56.50
2019-03-27T11:45:10.526Z,55.20
2019-03-27T11:47:31.102Z,55.30
2019-03-27T11:49:51.851Z,55.20
2019-03-27T11:52:12.402Z,54.90
2019-03-27T11:54:32.874Z,55.30
2019-03-27T11:56:53.457Z,56.80
2019-03-27T11:59:14.079Z,57.40
2019-03-27T12:01:42.035Z,57.80
2019-03-27T12:03:56.746Z,57.60
2019-03-27T12:06:17.344Z,57.80
2019-03-27T12:08:37.818Z,58.20
2019-03-27T12:10:58.488Z,58.40
2019-03-27T12:13:19.331Z,58.60
2019-03-27T12:15:41.506Z,59.50
2019-03-27T12:18:02.372Z,58.90
2019-03-27T12:20:22.903Z,59.00
2019-03-27T12:22:56.996Z,59.30
2019-03-27T12:25:06.608Z,59.50
2019-03-27T12:27:28.003Z,60.00
2019-03-27T12:29:48.449Z,60.00
2019-03-27T12:32:09.168Z,60.00
2019-03-27T12:34:29.676Z,60.30
2019-03-27T12:37:02.109Z,60.70
2019-03-27T12:39:22.789Z,59.80
2019-03-27T12:41:43.335Z,59.10
2019-03-27T12:44:04.108Z,58.70
2019-03-27T12:46:24.717Z,58.40
2019-03-27T12:48:45.329Z,58.80
2019-03-27T12:51:12.724Z,59.10
2019-03-27T12:53:28.287Z,58.70
2019-03-27T12:55:48.827Z,58.20
2019-03-27T12:58:21.704Z,58.10
2019-03-27T13:00:42.014Z,58.10
2019-03-27T13:03:02.750Z,58.00
2019-03-27T13:05:23.362Z,57.70
2019-03-27T13:07:50.050Z,57.00
2019-03-27T13:10:06.267Z,56.60
2019-03-27T13:12:32.829Z,56.10
2019-03-27T13:14:53.177Z,56.50
2019-03-27T13:17:13.770Z,57.60
2019-03-27T13:19:33.647Z,58.20
2019-03-27T13:21:54.192Z,58.20
2019-03-27T13:24:14.910Z,58.60
2019-03-27T13:26:35.503Z,59.90
2019-03-27T13:28:56.129Z,60.30
2019-03-27T13:31:16.827Z,60.30
2019-03-27T13:33:37.409Z,60.20
2019-03-27T13:35:58.153Z,60.30
2019-03-27T13:38:19.145Z,60.70
2019-03-27T13:40:39.692Z,60.70
2019-03-27T13:43:00.513Z,60.80
2019-03-27T13:45:21.196Z,60.30
2019-03-27T13:47:41.832Z,59.70
2019-03-27T13:50:02.471Z,59.30
2019-03-27T13:52:23.348Z,59.80
2019-03-27T13:54:56.579Z,59.80
2019-03-27T13:57:16.775Z,59.50
2019-03-27T13:59:37.392Z,58.70
2019-03-27T14:01:59.033Z,58.90
2019-03-27T14:04:19.877Z,59.00
2019-03-27T14:06:40.741Z,58.20
2019-03-27T14:09:01.184Z,58.30
2019-03-27T14:11:23.331Z,59.00
2019-03-27T14:13:43.909Z,59.30
2019-03-27T14:16:05.190Z,60.00
2019-03-27T14:18:25.770Z,60.70
2019-03-27T14:20:46.344Z,60.50
2019-03-27T14:23:06.935Z,60.60
2019-03-27T14:25:29.002Z,60.80
2019-03-27T14:27:49.588Z,62.30
2019-03-27T14:30:13.129Z,62.50
2019-03-27T14:32:34.275Z,62.40
2019-03-27T14:34:54.775Z,63.80
2019-03-27T14:37:15.635Z,62.70
2019-03-27T14:39:36.218Z,63.50
2019-03-27T14:41:56.748Z,63.30
2019-03-27T14:44:18.583Z,62.50
2019-03-27T14:46:39.081Z,62.40
2019-03-27T14:48:59.641Z,62.00
2019-03-27T14:51:20.428Z,61.50
2019-03-27T14:53:41.127Z,61.30
2019-03-27T14:56:01.730Z,61.20
2019-03-27T14:58:22.353Z,61.90
2019-03-27T15:00:42.870Z,61.80
2019-03-27T15:03:03.420Z,62.60
2019-03-27T15:05:24.067Z,62.40
2019-03-27T15:07:44.682Z,62.00
2019-03-27T15:10:07.952Z,62.50
2019-03-27T15:12:27.992Z,62.60
2019-03-27T15:14:48.568Z,62.50
2019-03-27T15:17:09.077Z,62.70
2019-03-27T15:19:29.807Z,62.80
2019-03-27T15:21:50.353Z,63.00
2019-03-27T15:24:10.996Z,62.80
2019-03-27T15:26:31.580Z,62.40
2019-03-27T15:28:52.353Z,61.80
2019-03-27T15:31:20.294Z,61.70
2019-03-27T15:33:35.299Z,61.80
2019-03-27T15:35:56.821Z,61.50
2019-03-27T15:38:18.533Z,62.00
2019-03-27T15:40:44.075Z,62.20
2019-03-27T15:43:04.640Z,62.80
2019-03-27T15:45:25.322Z,62.70
2019-03-27T15:47:45.853Z,62.90
2019-03-27T15:50:06.689Z,63.70
2019-03-27T15:52:36.188Z,63.80
2019-03-27T15:54:49.108Z,63.50
2019-03-27T15:57:09.768Z,63.40
2019-03-27T15:59:30.439Z,63.90
2019-03-27T16:01:51.026Z,64.10
2019-03-27T16:04:11.682Z,63.90
2019-03-27T16:06:32.272Z,64.00
2019-03-27T16:08:52.860Z,65.20
2019-03-27T16:11:13.789Z,64.30
2019-03-27T16:13:37.485Z,64.00
2019-03-27T16:15:58.098Z,63.70
2019-03-27T16:18:18.707Z,63.70
2019-03-27T16:20:39.333Z,64.10
2019-03-27T16:23:00.203Z,64.10
2019-03-27T16:25:20.785Z,64.20
2019-03-27T16:27:41.261Z,64.00
2019-03-27T16:30:01.843Z,64.40
2019-03-27T16:32:22.725Z,64.40
2019-03-27T16:34:44.250Z,64.50
2019-03-27T16:37:04.821Z,64.60
2019-03-27T16:39:25.553Z,64.40
2019-03-27T16:41:46.142Z,64.50
2019-03-27T16:44:07.795Z,64.20
2019-03-27T16:46:28.540Z,64.40
2019-03-27T16:48:50.688Z,64.70
2019-03-27T16:51:11.364Z,65.00
2019-03-27T16:53:31.825Z,64.60
2019-03-27T16:55:52.405Z,65.30
2019-03-27T16:58:13.023Z,64.50
2019-03-27T17:00:33.616Z,64.40
2019-03-27T17:02:54.269Z,64.70
2019-03-27T17:05:15.921Z,64.60
2019-03-27T17:07:36.799Z,64.70
2019-03-27T17:09:57.501Z,64.50
2019-03-27T17:12:18.127Z,64.90
2019-03-27T17:14:38.654Z,66.10
2019-03-27T17:16:59.374Z,66.00
2019-03-27T17:19:20.094Z,64.80
2019-03-27T17:21:43.177Z,65.60
2019-03-27T17:24:03.601Z,65.90
2019-03-27T17:26:24.188Z,66.70
2019-03-27T17:28:44.776Z,66.80
2019-03-27T17:31:05.450Z,66.60
2019-03-27T17:33:26.046Z,66.80
2019-03-27T17:35:46.614Z,67.20
2019-03-27T17:38:07.248Z,67.50
2019-03-27T17:40:28.041Z,67.70
2019-03-27T17:42:48.602Z,67.60
2019-03-27T17:45:09.221Z,68.40
2019-03-27T17:47:29.820Z,68.40
2019-03-27T17:49:50.332Z,68.30
2019-03-27T17:52:10.978Z,68.60
2019-03-27T17:54:31.616Z,70.10
2019-03-27T17:56:52.242Z,69.40
2019-03-27T17:59:12.788Z,69.70
2019-03-27T18:01:33.736Z,70.00
2019-03-27T18:03:54.359Z,70.50
2019-03-27T18:06:15.193Z,70.90
2019-03-27T18:08:35.800Z,71.00
2019-03-27T18:10:56.453Z,71.20
2019-03-27T18:13:17.090Z,71.60
2019-03-27T18:15:37.658Z,72.10
2019-03-27T18:17:58.199Z,72.20
2019-03-27T18:20:18.793Z,72.50
2019-03-27T18:22:51.844Z,73.20
2019-03-27T18:25:12.168Z,73.10
2019-03-27T18:27:32.786Z,73.60
2019-03-27T18:29:53.342Z,74.10
2019-03-27T18:32:13.986Z,74.50
2019-03-27T18:34:34.587Z,75.40
2019-03-27T18:36:55.361Z,75.60
2019-03-27T18:39:15.891Z,76.30
2019-03-27T18:41:36.533Z,76.30
2019-03-27T18:43:57.167Z,76.10
2019-03-27T18:46:17.816Z,76.50
2019-03-27T18:48:38.460Z,77.30
2019-03-27T18:50:59.343Z,77.40
2019-03-27T18:53:19.959Z,77.80
2019-03-27T18:55:41.391Z,77.70
2019-03-27T18:58:02.308Z,78.60
2019-03-27T19:00:23.242Z,79.30
2019-03-27T19:02:43.949Z,80.00
2019-03-27T19:05:07.137Z,79.40
2019-03-27T19:07:27.195Z,80.10
2019-03-27T19:09:47.840Z,79.30
2019-03-27T19:12:08.460Z,79.90
2019-03-27T19:14:29.290Z,80.00
2019-03-27T19:16:49.993Z,80.10
2019-03-27T19:19:10.587Z,80.40
2019-03-27T19:21:31.194Z,81.50
2019-03-27T19:23:51.928Z,82.30
2019-03-27T19:26:12.638Z,82.20
2019-03-27T19:28:33.240Z,82.00
2019-03-27T19:30:53.886Z,82.10
2019-03-27T19:33:14.718Z,82.80
2019-03-27T19:35:35.495Z,83.20
2019-03-27T19:37:56.404Z,82.90
2019-03-27T19:40:17.008Z,82.80
2019-03-27T19:42:37.722Z,82.60
2019-03-27T19:44:58.368Z,83.00
2019-03-27T19:47:19.118Z,83.50
2019-03-27T19:49:39.806Z,84.00
2019-03-27T19:52:00.436Z,84.10
2019-03-27T19:54:27.432Z,84.00
2019-03-27T19:56:44.358Z,84.80
2019-03-27T19:59:05.051Z,84.60
2019-03-27T20:01:25.828Z,85.40
2019-03-27T20:03:46.434Z,85.00
2019-03-27T20:06:07.237Z,84.80
2019-03-27T20:08:27.786Z,85.10
2019-03-27T20:10:48.584Z,85.80
2019-03-27T20:13:09.162Z,85.90
2019-03-27T20:15:29.813Z,86.10
2019-03-27T20:17:50.515Z,85.90
2019-03-27T20:20:11.288Z,84.70
2019-03-27T20:22:32.185Z,83.20
2019-03-27T20:24:52.885Z,82.40
2019-03-27T20:27:15.284Z,83.00
2019-03-27T20:29:35.967Z,84.40
2019-03-27T20:31:56.631Z,85.40
2019-03-27T20:34:17.583Z,85.90
2019-03-27T20:36:38.882Z,85.40
2019-03-27T20:39:00.418Z,86.00
2019-03-27T20:41:22.526Z,84.60
2019-03-27T20:43:43.186Z,84.80
2019-03-27T20:46:03.878Z,84.90
2019-03-27T20:48:24.495Z,84.50
2019-03-27T20:50:45.109Z,83.70
2019-03-27T20:53:06.021Z,83.30
2019-03-27T20:55:30.508Z,82.80
2019-03-27T20:57:48.260Z,82.00
2019-03-27T21:00:10.457Z,83.60
2019-03-27T21:02:31.298Z,84.30
2019-03-27T21:04:51.969Z,84.60
2019-03-27T21:07:12.778Z,83.50
2019-03-27T21:09:33.566Z,83.20
2019-03-27T21:11:56.099Z,83.00
2019-03-27T21:14:15.947Z,84.30
2019-03-27T21:16:36.536Z,84.10
2019-03-27T21:18:57.245Z,83.60
2019-03-27T21:21:17.829Z,83.40
2019-03-27T21:23:38.364Z,83.40
2019-03-27T21:25:58.652Z,83.90
2019-03-27T21:28:19.274Z,84.30
2019-03-27T21:30:39.996Z,84.10
2019-03-27T21:33:00.566Z,84.10
2019-03-27T21:35:21.240Z,84.30
2019-03-27T21:37:41.925Z,84.30
2019-03-27T21:40:02.740Z,84.90
2019-03-27T21:42:23.493Z,85.60
2019-03-27T21:44:44.109Z,85.40
2019-03-27T21:47:04.781Z,86.30
2019-03-27T21:49:25.450Z,85.20
2019-03-27T21:51:46.080Z,85.40
2019-03-27T21:54:06.949Z,86.40
2019-03-27T21:56:27.439Z,86.00
2019-03-27T21:58:48.119Z,85.40
2019-03-27T22:01:08.824Z,85.60
2019-03-27T22:03:29.494Z,86.40
2019-03-27T22:05:50.220Z,85.80
2019-03-27T22:08:11.142Z,86.00
2019-03-27T22:10:31.794Z,86.40
2019-03-27T22:12:52.357Z,86.50
2019-03-27T22:15:13.159Z,86.50
2019-03-27T22:17:33.856Z,86.20
2019-03-27T22:19:54.490Z,86.10
2019-03-27T22:22:15.139Z,86.10
2019-03-27T22:24:35.743Z,85.40
2019-03-27T22:26:56.507Z,85.60
2019-03-27T22:29:17.082Z,85.50
2019-03-27T22:31:37.695Z,85.30
2019-03-27T22:33:58.608Z,85.90
2019-03-27T22:36:19.195Z,85.90
2019-03-27T22:38:39.807Z,85.50
2019-03-27T22:41:00.395Z,85.20
2019-03-27T22:43:20.979Z,85.80
2019-03-27T22:45:41.600Z,86.00
2019-03-27T22:48:02.286Z,85.60
2019-03-27T22:50:22.927Z,85.90
2019-03-27T22:52:43.521Z,86.30
2019-03-27T22:55:06.312Z,86.70
2019-03-27T22:57:26.599Z,86.80
2019-03-27T22:59:47.183Z,86.50
2019-03-27T23:02:08.184Z,86.00
2019-03-27T23:04:29.142Z,85.80
2019-03-27T23:06:50.125Z,86.10
2019-03-27T23:09:10.922Z,85.80
2019-03-27T23:11:31.831Z,86.20
2019-03-27T23:13:52.732Z,86.60
2019-03-27T23:16:13.674Z,88.30
2019-03-27T23:18:34.545Z,87.50
2019-03-27T23:20:55.551Z,87.30
2019-03-27T23:23:16.461Z,87.70
2019-03-27T23:25:37.433Z,86.30
2019-03-27T23:27:58.423Z,86.00
2019-03-27T23:30:50.984Z,86.20
2019-03-27T23:33:11.609Z,86.30
2019-03-27T23:35:32.244Z,86.60
2019-03-27T23:37:52.861Z,87.20
2019-03-27T23:40:13.697Z,87.60
2019-03-27T23:42:34.360Z,87.90
2019-03-27T23:44:55.487Z,87.90
2019-03-27T23:47:16.063Z,88.20
2019-03-27T23:49:36.573Z,88.30
2019-03-27T23:51:57.079Z,88.30
2019-03-27T23:54:17.681Z,88.40
2019-03-27T23:56:38.264Z,88.40
2019-03-27T23:58:58.761Z,88.60
